Impacts TAF Board
For situational awareness. Not to be used for flight planning purposes.
IDs:

KPIT - Pittsburgh Intl, PA, US

Issued at 1833 UTC 02 Oct 2022
Updated at 2009 UTC 02 Oct 2022
Potential Impact None Slight Moderate High
Time1951Z 02/21Z 02/22Z 02/23Z 03/00Z 03/01Z 03/02Z 03/03Z 03/04Z 03/05Z 03/06Z 03/07Z 03/08Z 03/09Z>>
Type OBS PRVL PRVL PRVL PRVL PRVL PRVL PRVL PRVL PRVL PRVL PRVL PRVL PRVL
VIS 10 >6 >6 >6 >6 >6 >6 >6 >6 >6 >6 >6 >6 >6
CIG 250 35 35 -- -- -- -- -- -- -- -- -- -- --
Cover BKN BKN BKN SKC SKC SKC SKC SKC SKC SKC SKC SKC SKC SKC
FltCat VFR VFR VFR VFR VFR VFR VFR VFR VFR VFR VFR VFR VFR VFR
WX -- -- -- -- -- -- -- -- -- -- -- -- -- --
WDir 70 30 30 20 20 20 20 20 20 20 20 20 20 20
WSpd 7 10 10 5 5 5 5 5 5 5 5 5 5 5
WGst -- -- -- -- -- -- -- -- -- -- -- -- -- --
WSHgt -- -- -- -- -- -- -- -- -- -- -- -- -- --
WSDir -- -- -- -- -- -- -- -- -- -- -- -- -- --
WSSpd -- -- -- -- -- -- -- -- -- -- -- -- -- --
Raw TAF
KPIT 021833Z 0219/0324 03010KT P6SM BKN035
  FM022300 02005KT P6SM SKC


Raw METAR
KPIT 021951Z 07007KT 10SM FEW040 SCT065 BKN250 17/09 A3014 RMK AO2 SLP213 T01720094
KPIT 021851Z 04008KT 10SM FEW038 BKN065 BKN250 17/09 A3014 RMK AO2 SLP212 T01670094
KPIT 021751Z 03013G17KT 10SM SCT029 BKN060 BKN250 16/09 A3014 RMK AO2 SLP213 60001 T01610089 10161 20117 50002

METAR Board
Radar Display
Forecast Discussion
For situational awareness. Not to be used for flight planning purposes.